Time;durP1;ratioP1;P1;durP2;ratioP2;P2;SDS_P1;SDS_P2;PMS_P1;PMS_P2;Temp;Humidity;BMP_temperature;BMP_pressure;BME280_temperature;BME280_humidity;BME280_pressure;Samples;Min_cycle;Max_cycle;Signal;HPM_P1;HPM_P2
2023/08/01 00:01:49;;;;;;;8.90;2.40;;;19.50;99.90;;;;;;5018940;28;20403;-70
2023/08/01 00:04:16;;;;;;;6.75;2.00;;;19.60;99.90;;;;;;5021274;28;20389;-70
2023/08/01 00:06:41;;;;;;;7.22;1.92;;;19.70;99.90;;;;;;5025254;28;20393;-70
2023/08/01 00:09:07;;;;;;;8.23;2.33;;;19.70;99.90;;;;;;5040444;28;20459;-70
2023/08/01 00:11:32;;;;;;;5.90;1.90;;;19.60;99.90;;;;;;5024491;28;20403;-70
2023/08/01 00:13:58;;;;;;;7.00;2.10;;;19.60;1.00;;;;;;5021684;28;20396;-70
2023/08/01 00:16:24;;;;;;;6.32;2.00;;;19.60;1.00;;;;;;5017841;28;20918;-69
2023/08/01 00:18:49;;;;;;;8.05;1.90;;;19.60;1.00;;;;;;5020525;28;20391;-70
2023/08/01 00:21:15;;;;;;;6.47;2.20;;;19.50;1.00;;;;;;5021798;28;20406;-70
2023/08/01 00:23:41;;;;;;;7.10;2.30;;;19.40;1.00;;;;;;5018851;28;20397;-70
2023/08/01 00:26:06;;;;;;;6.40;2.07;;;19.40;1.00;;;;;;5020423;28;20421;-70
2023/08/01 00:28:32;;;;;;;8.17;2.40;;;19.40;1.00;;;;;;5021047;28;20772;-70
2023/08/01 00:31:10;;;;;;;9.05;2.40;;;19.40;1.00;;;;;;5019553;28;20427;-70
2023/08/01 00:33:36;;;;;;;7.77;2.60;;;19.40;1.00;;;;;;5021085;28;20400;-70
2023/08/01 00:36:01;;;;;;;6.75;2.17;;;19.30;1.00;;;;;;5019335;28;20913;-70
2023/08/01 00:38:27;;;;;;;7.57;2.50;;;19.30;1.00;;;;;;5026803;28;20926;-69
2023/08/01 00:40:53;;;;;;;7.77;1.80;;;19.30;1.00;;;;;;5001476;28;20919;-69
2023/08/01 00:43:19;;;;;;;6.20;1.98;;;19.30;1.00;;;;;;5019102;28;20485;-69
2023/08/01 00:45:45;;;;;;;6.72;2.17;;;19.10;1.00;;;;;;5020735;28;20398;-69
2023/08/01 00:48:11;;;;;;;6.93;2.80;;;19.20;1.00;;;;;;5019856;28;20420;-69
2023/08/01 00:50:37;;;;;;;7.10;2.40;;;19.00;1.00;;;;;;5019230;28;20512;-69
2023/08/01 00:53:02;;;;;;;6.00;2.10;;;19.00;1.00;;;;;;5021237;28;20437;-70
2023/08/01 00:55:30;;;;;;;7.35;2.13;;;19.00;1.00;;;;;;5020510;28;20388;-70
2023/08/01 00:57:55;;;;;;;6.68;1.83;;;19.00;1.00;;;;;;4999563;28;20407;-70
2023/08/01 01:00:21;;;;;;;6.90;2.50;;;19.00;1.00;;;;;;5017799;28;20395;-70
2023/08/01 01:02:46;;;;;;;8.50;2.30;;;19.00;1.00;;;;;;5019012;28;20409;-70
2023/08/01 01:05:13;;;;;;;6.87;2.13;;;18.90;1.00;;;;;;5018731;28;20391;-70
2023/08/01 01:07:39;;;;;;;6.97;2.30;;;18.90;1.00;;;;;;5017550;28;20494;-69
2023/08/01 01:10:05;;;;;;;6.85;2.08;;;19.00;1.00;;;;;;5016189;28;20420;-69
2023/08/01 01:12:31;;;;;;;5.78;1.65;;;19.00;1.00;;;;;;5023947;28;20393;-69
2023/08/01 01:14:56;;;;;;;7.83;2.27;;;18.80;1.00;;;;;;5020646;28;20445;-70
2023/08/01 01:17:22;;;;;;;7.57;2.00;;;18.80;1.00;;;;;;5018473;28;21014;-70
2023/08/01 01:19:47;;;;;;;6.63;1.90;;;18.80;1.00;;;;;;5019488;28;20462;-69
2023/08/01 01:22:14;;;;;;;6.30;2.30;;;18.80;1.00;;;;;;5016377;28;20846;-70
2023/08/01 01:24:42;;;;;;;7.50;1.98;;;18.80;1.00;;;;;;5018121;28;20396;-70
2023/08/01 01:27:08;;;;;;;8.02;2.60;;;18.90;1.00;;;;;;5019585;28;20815;-70
2023/08/01 01:29:34;;;;;;;6.57;1.98;;;18.90;1.00;;;;;;5019962;28;20420;-70
2023/08/01 01:32:01;;;;;;;6.38;1.73;;;18.90;1.00;;;;;;5018412;28;20971;-70
2023/08/01 01:34:28;;;;;;;9.70;2.30;;;18.80;1.00;;;;;;5018456;28;20396;-69
2023/08/01 01:36:53;;;;;;;6.28;2.20;;;18.70;1.00;;;;;;5018067;28;20415;-69
2023/08/01 01:39:19;;;;;;;7.00;2.10;;;18.70;1.00;;;;;;5017449;28;20450;-69
2023/08/01 01:41:44;;;;;;;8.27;2.03;;;18.70;1.00;;;;;;5019076;28;20402;-69
2023/08/01 01:44:10;;;;;;;7.93;2.13;;;18.60;1.00;;;;;;5016767;28;20403;-69
2023/08/01 01:46:35;;;;;;;10.37;2.30;;;18.70;1.00;;;;;;5018818;28;20385;-69
2023/08/01 01:49:01;;;;;;;9.03;2.30;;;18.60;1.00;;;;;;5017911;28;20442;-68
2023/08/01 01:51:27;;;;;;;8.43;2.30;;;18.40;30.00;;;;;;5016986;28;20431;-69
2023/08/01 01:53:53;;;;;;;7.50;2.30;;;18.50;31.10;;;;;;5018670;28;21075;-69
2023/08/01 01:56:18;;;;;;;6.70;2.57;;;18.60;26.50;;;;;;5016094;28;20402;-69
2023/08/01 01:58:44;;;;;;;7.53;2.20;;;18.60;13.10;;;;;;5019777;28;20883;-69
2023/08/01 02:01:09;;;;;;;7.63;2.70;;;18.70;27.10;;;;;;5021251;28;20391;-69
2023/08/01 02:03:36;;;;;;;6.20;2.00;;;18.70;1.00;;;;;;5018872;28;20472;-69
2023/08/01 02:06:03;;;;;;;8.32;2.60;;;18.70;10.80;;;;;;5023363;28;20387;-69
2023/08/01 02:08:29;;;;;;;11.90;3.10;;;18.80;19.70;;;;;;5022566;28;20402;-69
2023/08/01 02:11:02;;;;;;;6.68;2.15;;;18.90;4.50;;;;;;5023177;28;20464;-70
2023/08/01 02:13:31;;;;;;;10.60;2.20;;;18.90;33.60;;;;;;5020604;28;20419;-69
2023/08/01 02:15:56;;;;;;;5.80;1.95;;;19.10;41.80;;;;;;5023462;28;20396;-69
2023/08/01 02:18:22;;;;;;;7.20;2.30;;;19.20;15.80;;;;;;5022646;28;21415;-70
2023/08/01 02:20:47;;;;;;;6.78;1.90;;;19.30;6.60;;;;;;5019826;28;20412;-69
2023/08/01 02:23:13;;;;;;;7.20;2.58;;;19.20;24.60;;;;;;5022802;28;20469;-69
2023/08/01 02:25:40;;;;;;;7.53;2.20;;;19.30;6.10;;;;;;5019864;28;20401;-69
2023/08/01 02:28:06;;;;;;;7.53;2.10;;;19.20;23.30;;;;;;5022424;28;20404;-69
2023/08/01 02:30:31;;;;;;;6.82;1.90;;;19.10;7.80;;;;;;5020143;28;20479;-69
2023/08/01 02:32:57;;;;;;;7.60;2.30;;;19.10;16.10;;;;;;5021095;28;20470;-69
2023/08/01 02:35:22;;;;;;;8.60;2.40;;;19.10;14.50;;;;;;5021452;28;20418;-69
2023/08/01 02:37:48;;;;;;;6.73;1.73;;;18.90;25.10;;;;;;5019847;28;20455;-69
2023/08/01 02:40:13;;;;;;;9.60;2.20;;;18.80;29.10;;;;;;5019937;28;20904;-69
2023/08/01 02:42:39;;;;;;;6.00;2.03;;;18.80;64.00;;;;;;5022113;28;20391;-69
2023/08/01 02:45:05;;;;;;;5.20;1.80;;;18.80;55.00;;;;;;5020628;28;20400;-69
2023/08/01 02:47:31;;;;;;;8.07;2.38;;;18.80;53.30;;;;;;5019260;28;20754;-69
2023/08/01 02:49:56;;;;;;;8.93;2.60;;;18.70;37.00;;;;;;5019261;28;20472;-69
2023/08/01 02:52:22;;;;;;;6.00;1.90;;;18.60;31.10;;;;;;5024027;28;20425;-69
2023/08/01 02:54:47;;;;;;;8.40;2.70;;;18.70;9.00;;;;;;5019412;28;20509;-70
2023/08/01 02:57:13;;;;;;;7.57;2.40;;;18.70;1.00;;;;;;5024846;28;20395;-70
2023/08/01 02:59:38;;;;;;;6.60;1.98;;;18.70;14.90;;;;;;4985388;28;20389;-69
2023/08/01 03:02:04;;;;;;;7.03;2.45;;;18.80;1.00;;;;;;5021553;28;20774;-69
2023/08/01 03:04:29;;;;;;;7.78;2.28;;;18.70;1.00;;;;;;5019696;28;20457;-70
2023/08/01 03:06:55;;;;;;;6.50;2.13;;;18.70;15.90;;;;;;5021535;28;20716;-69
2023/08/01 03:09:20;;;;;;;6.60;2.00;;;18.70;9.80;;;;;;5021829;28;20410;-68
2023/08/01 03:11:46;;;;;;;7.30;2.40;;;18.70;27.00;;;;;;5019614;28;20411;-69
2023/08/01 03:14:11;;;;;;;7.50;2.23;;;18.70;10.90;;;;;;5021042;28;20834;-69
2023/08/01 03:16:37;;;;;;;7.70;1.97;;;18.70;8.80;;;;;;5019215;28;20416;-69
2023/08/01 03:19:04;;;;;;;9.20;2.57;;;18.70;31.00;;;;;;5019513;28;20393;-69
2023/08/01 03:21:32;;;;;;;12.18;2.40;;;18.80;18.60;;;;;;5019259;28;20402;-69
2023/08/01 03:23:58;;;;;;;7.10;2.35;;;18.80;16.30;;;;;;5018445;28;20381;-69
2023/08/01 03:26:23;;;;;;;7.45;2.78;;;18.90;20.70;;;;;;5022654;28;20764;-69
2023/08/01 03:28:49;;;;;;;7.50;2.50;;;18.90;10.20;;;;;;5019072;28;20401;-69
2023/08/01 03:31:15;;;;;;;7.53;2.53;;;18.90;11.30;;;;;;5022045;28;20449;-69
2023/08/01 03:33:40;;;;;;;6.47;2.25;;;19.00;16.30;;;;;;5021701;28;20389;-68
2023/08/01 03:36:06;;;;;;;7.80;2.25;;;19.10;9.40;;;;;;5018999;28;20395;-69
2023/08/01 03:38:32;;;;;;;7.40;2.70;;;19.10;6.70;;;;;;5021561;28;20389;-69
2023/08/01 03:40:57;;;;;;;7.57;2.13;;;19.10;1.00;;;;;;5021866;28;20463;-70
2023/08/01 03:43:23;;;;;;;10.88;2.58;;;19.00;1.00;;;;;;5019516;28;20445;-69
2023/08/01 03:45:50;;;;;;;5.95;2.00;;;18.90;1.00;;;;;;5023072;28;20924;-69
2023/08/01 03:48:15;;;;;;;10.88;2.35;;;18.80;1.00;;;;;;5022313;28;20397;-69
2023/08/01 03:50:41;;;;;;;7.03;1.70;;;18.80;1.00;;;;;;5018613;28;20425;-69
2023/08/01 03:53:07;;;;;;;6.72;2.35;;;18.70;1.00;;;;;;5018810;28;20423;-69
2023/08/01 03:55:33;;;;;;;8.00;2.10;;;18.60;1.00;;;;;;5021512;28;20713;-70
2023/08/01 03:57:58;;;;;;;6.63;2.10;;;18.70;1.00;;;;;;5019896;28;20392;-69
2023/08/01 04:00:24;;;;;;;6.20;2.28;;;18.70;1.00;;;;;;5019940;28;20419;-69
2023/08/01 04:02:50;;;;;;;6.50;1.63;;;18.70;1.00;;;;;;5018635;28;20479;-69
2023/08/01 04:05:15;;;;;;;6.27;2.00;;;18.60;1.00;;;;;;5017965;28;20439;-69
2023/08/01 04:07:41;;;;;;;6.50;1.80;;;18.70;1.00;;;;;;5020888;28;20812;-69
2023/08/01 04:10:07;;;;;;;6.55;2.20;;;18.70;1.00;;;;;;5022111;28;20422;-69
2023/08/01 04:12:33;;;;;;;6.57;2.30;;;18.60;1.00;;;;;;5018321;28;20397;-69
2023/08/01 04:14:59;;;;;;;8.00;1.90;;;18.60;1.00;;;;;;5009464;28;20543;-69
2023/08/01 04:17:25;;;;;;;7.78;1.83;;;18.60;1.00;;;;;;5016919;28;20403;-68
2023/08/01 04:19:50;;;;;;;5.70;1.80;;;18.60;1.00;;;;;;5028671;28;20410;-68
2023/08/01 04:22:16;;;;;;;8.30;2.10;;;18.70;1.00;;;;;;5028356;28;20410;-69
2023/08/01 04:24:41;;;;;;;6.30;1.60;;;18.70;1.00;;;;;;5025234;28;20414;-68
2023/08/01 04:27:07;;;;;;;6.50;1.55;;;18.70;1.00;;;;;;5022295;28;20404;-68
2023/08/01 04:29:32;;;;;;;6.50;1.60;;;18.70;1.00;;;;;;5017835;28;20425;-69
2023/08/01 04:31:58;;;;;;;7.80;2.10;;;18.70;1.00;;;;;;5020807;28;20474;-69
2023/08/01 04:34:24;;;;;;;6.03;1.50;;;18.80;1.00;;;;;;5021185;28;20401;-69
2023/08/01 04:36:49;;;;;;;5.77;1.80;;;18.90;1.00;;;;;;5018794;28;20400;-69
2023/08/01 04:39:15;;;;;;;6.67;1.90;;;19.00;1.00;;;;;;5017263;28;20427;-69
2023/08/01 04:41:40;;;;;;;8.57;2.03;;;19.00;1.00;;;;;;5019262;28;20399;-69
2023/08/01 04:44:06;;;;;;;7.35;1.75;;;19.10;1.00;;;;;;5018642;28;20404;-69
2023/08/01 04:46:32;;;;;;;8.93;2.30;;;19.10;99.90;;;;;;5020200;28;20411;-69
2023/08/01 04:48:58;;;;;;;6.72;2.10;;;19.30;99.90;;;;;;5017802;28;20398;-69
2023/08/01 04:51:24;;;;;;;9.40;2.00;;;19.50;99.90;;;;;;5021989;28;20439;-69
2023/08/01 04:53:50;;;;;;;8.60;2.70;;;19.70;99.90;;;;;;5020292;28;20448;-69
2023/08/01 04:56:15;;;;;;;8.80;2.47;;;19.80;99.90;;;;;;5017008;28;20397;-69
2023/08/01 04:58:41;;;;;;;6.47;2.10;;;19.90;99.90;;;;;;5019337;28;20410;-70
2023/08/01 05:01:06;;;;;;;6.60;1.70;;;20.00;99.90;;;;;;5016556;28;20398;-69
2023/08/01 05:03:32;;;;;;;6.77;1.83;;;20.00;99.90;;;;;;5023030;28;20387;-69
2023/08/01 05:05:58;;;;;;;5.13;1.40;;;19.90;99.90;;;;;;5028167;28;20458;-69
2023/08/01 05:08:23;;;;;;;9.82;1.65;;;19.80;1.00;;;;;;5027993;28;20474;-69
2023/08/01 05:10:49;;;;;;;5.67;1.60;;;19.60;1.00;;;;;;5028046;28;20820;-69
2023/08/01 05:13:14;;;;;;;7.70;1.93;;;19.20;1.00;;;;;;5028554;28;20503;-69
2023/08/01 05:15:40;;;;;;;5.70;1.70;;;19.10;1.00;;;;;;5027935;28;20379;-69
2023/08/01 05:18:05;;;;;;;5.80;1.30;;;19.20;1.00;;;;;;5028600;28;20395;-69
2023/08/01 05:20:33;;;;;;;6.38;1.70;;;19.30;1.00;;;;;;5028703;28;20383;-69
2023/08/01 05:22:59;;;;;;;7.20;1.90;;;19.50;1.00;;;;;;5011130;28;20505;-69
2023/08/01 05:25:24;;;;;;;7.90;1.80;;;19.40;1.00;;;;;;5023149;28;20932;-69
2023/08/01 05:27:50;;;;;;;6.20;1.67;;;19.10;1.00;;;;;;5037317;28;20417;-69
2023/08/01 05:30:16;;;;;;;5.63;1.70;;;19.00;1.00;;;;;;5042624;28;20430;-69
2023/08/01 05:32:43;;;;;;;7.45;1.85;;;19.00;1.00;;;;;;5026147;28;20415;-69
2023/08/01 05:35:09;;;;;;;6.88;1.48;;;19.00;1.00;;;;;;5031316;28;20407;-69
2023/08/01 05:37:34;;;;;;;7.33;2.13;;;19.00;1.00;;;;;;5031901;28;20477;-69
2023/08/01 05:40:00;;;;;;;9.30;2.43;;;19.00;1.00;;;;;;5031433;28;20395;-69
2023/08/01 05:42:26;;;;;;;7.10;1.55;;;19.00;1.00;;;;;;5031004;28;20391;-69
2023/08/01 05:44:51;;;;;;;5.47;1.50;;;19.10;1.00;;;;;;5023123;28;20401;-69
2023/08/01 05:47:17;;;;;;;6.30;2.00;;;19.20;1.00;;;;;;5011581;28;20405;-69
2023/08/01 05:49:42;;;;;;;5.23;1.57;;;19.30;1.00;;;;;;5011916;28;20437;-69
2023/08/01 05:52:08;;;;;;;7.70;1.50;;;19.30;1.00;;;;;;5010920;28;20435;-70
2023/08/01 05:54:33;;;;;;;7.73;1.53;;;19.40;1.00;;;;;;5011693;28;20752;-70
2023/08/01 05:56:59;;;;;;;6.20;2.20;;;19.40;1.00;;;;;;5012101;28;20476;-70
2023/08/01 05:59:24;;;;;;;7.10;1.70;;;19.50;1.00;;;;;;5012393;28;20892;-70
2023/08/01 06:01:50;;;;;;;6.47;2.03;;;19.50;1.00;;;;;;5011693;28;20828;-70
2023/08/01 06:04:15;;;;;;;6.97;1.88;;;19.50;1.00;;;;;;5018679;28;20410;-69
2023/08/01 06:06:41;;;;;;;7.80;2.17;;;19.50;1.00;;;;;;5019192;28;20400;-70
2023/08/01 06:09:06;;;;;;;6.13;1.65;;;19.70;99.90;;;;;;5027981;28;20756;-70
2023/08/01 06:11:33;;;;;;;8.57;2.00;;;19.70;99.90;;;;;;5012271;28;20763;-70
2023/08/01 06:13:59;;;;;;;8.15;2.00;;;19.60;99.90;;;;;;5019983;28;20785;-69
2023/08/01 06:16:24;;;;;;;5.97;1.63;;;19.60;99.90;;;;;;5013588;28;21142;-69
2023/08/01 06:18:50;;;;;;;7.10;2.03;;;19.50;99.90;;;;;;5011137;28;20393;-69
2023/08/01 06:21:15;;;;;;;7.20;1.80;;;19.40;99.90;;;;;;5011112;28;20443;-70
2023/08/01 06:23:41;;;;;;;7.93;2.20;;;19.50;99.90;;;;;;5028673;28;20391;-70
2023/08/01 06:26:06;;;;;;;7.67;2.20;;;19.60;99.90;;;;;;5031880;28;20403;-69
2023/08/01 06:28:32;;;;;;;7.60;2.60;;;19.70;99.90;;;;;;5031392;28;20467;-69
2023/08/01 06:30:57;;;;;;;7.27;2.30;;;19.40;1.00;;;;;;5030696;28;20911;-69
2023/08/01 06:33:23;;;;;;;7.57;2.50;;;19.00;1.00;;;;;;5023810;28;20401;-69
2023/08/01 06:35:49;;;;;;;8.80;1.90;;;18.60;1.00;;;;;;5010892;28;20435;-69
2023/08/01 06:38:14;;;;;;;8.25;2.10;;;18.50;1.00;;;;;;5010574;28;20475;-69
2023/08/01 06:40:40;;;;;;;7.00;2.30;;;18.10;16.90;;;;;;5027300;28;20457;-69
2023/08/01 06:43:05;;;;;;;8.60;2.30;;;18.00;39.80;;;;;;5030373;28;20417;-69
2023/08/01 06:45:31;;;;;;;7.13;2.07;;;18.00;86.10;;;;;;5017276;28;20392;-69
2023/08/01 06:47:56;;;;;;;8.73;2.10;;;18.00;99.90;;;;;;5010895;28;20388;-69
2023/08/01 06:50:22;;;;;;;8.00;2.30;;;18.00;99.90;;;;;;5017826;28;20423;-69
2023/08/01 06:52:48;;;;;;;8.10;2.15;;;18.10;99.90;;;;;;5030362;28;20426;-69
2023/08/01 06:55:14;;;;;;;7.37;2.93;;;18.00;99.90;;;;;;5030908;28;20398;-69
2023/08/01 06:57:39;;;;;;;8.53;2.37;;;18.00;99.90;;;;;;5030894;28;20394;-69
2023/08/01 07:00:06;;;;;;;8.70;2.33;;;17.90;99.90;;;;;;5030710;28;20749;-69
2023/08/01 07:02:31;;;;;;;6.63;2.50;;;18.00;99.90;;;;;;5030713;28;20408;-69
2023/08/01 07:04:57;;;;;;;10.45;2.38;;;17.90;99.90;;;;;;5030773;28;20468;-69
2023/08/01 07:07:22;;;;;;;6.67;2.00;;;17.90;99.90;;;;;;5022946;28;20401;-69
2023/08/01 07:09:48;;;;;;;8.23;2.17;;;18.00;99.90;;;;;;5010433;28;20413;-69
2023/08/01 07:12:14;;;;;;;7.33;2.57;;;18.30;99.90;;;;;;5011924;28;20396;-68
2023/08/01 07:14:41;;;;;;;6.05;2.33;;;18.40;85.10;;;;;;4994993;28;20416;-68
2023/08/01 07:17:06;;;;;;;6.53;2.10;;;18.50;39.80;;;;;;5012983;28;20421;-68
2023/08/01 07:19:32;;;;;;;8.70;3.10;;;18.40;33.40;;;;;;5013304;28;20423;-69
2023/08/01 07:21:57;;;;;;;7.22;2.40;;;18.30;19.00;;;;;;5011769;28;20413;-69
2023/08/01 07:24:23;;;;;;;10.30;3.00;;;18.10;51.10;;;;;;5019982;28;20458;-68
2023/08/01 07:26:48;;;;;;;8.20;2.60;;;18.10;62.20;;;;;;5033025;28;20418;-68
2023/08/01 07:29:15;;;;;;;7.10;2.70;;;18.10;49.00;;;;;;5032975;28;20483;-69
2023/08/01 07:31:41;;;;;;;6.72;2.28;;;17.90;55.20;;;;;;5032487;28;20476;-68
2023/08/01 07:34:07;;;;;;;9.40;2.90;;;17.70;99.90;;;;;;5033091;28;20390;-69
2023/08/01 07:36:33;;;;;;;7.97;2.70;;;17.70;99.90;;;;;;5033591;28;20387;-69
2023/08/01 07:38:58;;;;;;;9.40;2.50;;;17.50;99.90;;;;;;5017070;28;20882;-69
2023/08/01 07:41:24;;;;;;;8.77;2.47;;;17.30;99.90;;;;;;5034001;28;20402;-69
2023/08/01 07:43:50;;;;;;;7.30;2.10;;;17.20;99.90;;;;;;5034358;28;20419;-69
2023/08/01 07:46:17;;;;;;;7.40;2.80;;;17.30;99.90;;;;;;5033970;28;20887;-68
2023/08/01 07:48:42;;;;;;;6.72;2.20;;;17.20;99.90;;;;;;5000914;28;20411;-69
2023/08/01 07:51:09;;;;;;;8.00;1.98;;;17.20;99.90;;;;;;5033049;28;20419;-69
2023/08/01 07:53:38;;;;;;;7.45;2.45;;;17.20;99.90;;;;;;5033721;28;20414;-69
2023/08/01 07:56:06;;;;;;;5.50;1.87;;;17.30;99.90;;;;;;5033641;28;20383;-69
2023/08/01 07:58:33;;;;;;;8.15;3.05;;;17.30;99.90;;;;;;5033903;28;20862;-68
2023/08/01 08:01:06;;;;;;;7.50;2.30;;;17.40;99.90;;;;;;5033448;28;20400;-69
2023/08/01 08:03:32;;;;;;;6.30;1.40;;;17.70;99.90;;;;;;5032436;28;20391;-68
2023/08/01 08:05:58;;;;;;;5.90;1.53;;;17.80;99.90;;;;;;5030899;28;20731;-69
2023/08/01 08:08:24;;;;;;;5.50;1.60;;;18.00;99.90;;;;;;5029015;28;20398;-69
2023/08/01 08:10:49;;;;;;;6.03;1.43;;;18.10;99.90;;;;;;5029207;28;20791;-69
2023/08/01 08:13:15;;;;;;;5.93;1.93;;;18.10;99.90;;;;;;5025311;28;20400;-69
2023/08/01 08:15:40;;;;;;;5.73;1.90;;;18.10;99.90;;;;;;5021632;28;20905;-68
2023/08/01 08:18:06;;;;;;;4.50;1.10;;;17.90;99.90;;;;;;5029637;28;20403;-69
2023/08/01 08:20:39;;;;;;;5.90;1.60;;;18.00;99.90;;;;;;5029679;28;20399;-69
2023/08/01 08:23:05;;;;;;;4.70;1.20;;;17.90;99.90;;;;;;5029376;28;20462;-69
2023/08/01 08:25:30;;;;;;;4.80;1.10;;;17.80;99.90;;;;;;5029396;28;20394;-69
2023/08/01 08:27:56;;;;;;;5.50;1.50;;;17.90;99.90;;;;;;5029357;28;20399;-70
2023/08/01 08:30:21;;;;;;;5.30;1.40;;;18.00;99.90;;;;;;5029738;28;20418;-69
2023/08/01 08:32:47;;;;;;;5.30;1.40;;;18.20;99.90;;;;;;5028162;28;20402;-69
2023/08/01 08:35:12;;;;;;;5.00;1.08;;;18.30;99.90;;;;;;5028499;28;20379;-70
2023/08/01 08:37:38;;;;;;;4.90;1.27;;;18.30;99.90;;;;;;5020892;28;20505;-69
2023/08/01 08:40:04;;;;;;;5.72;1.52;;;18.50;99.90;;;;;;4991831;28;20499;-69
2023/08/01 08:42:33;;;;;;;4.70;1.13;;;18.50;99.90;;;;;;5026024;28;20391;-69
2023/08/01 08:45:01;;;;;;;4.97;1.33;;;18.70;99.90;;;;;;5020306;28;20393;-70
2023/08/01 08:47:29;;;;;;;4.63;0.90;;;18.90;69.30;;;;;;5008705;28;20401;-69
2023/08/01 08:49:57;;;;;;;5.32;1.02;;;19.00;99.90;;;;;;5019904;28;20426;-70
2023/08/01 08:52:24;;;;;;;4.85;1.10;;;18.90;27.90;;;;;;5028504;28;20461;-69
2023/08/01 08:54:50;;;;;;;4.60;1.05;;;18.90;60.00;;;;;;5028649;28;20896;-69
2023/08/01 08:57:16;;;;;;;5.00;1.10;;;19.00;76.00;;;;;;5011962;28;20398;-69
2023/08/01 08:59:43;;;;;;;6.03;1.47;;;19.10;29.80;;;;;;5028729;28;20747;-69
2023/08/01 09:02:08;;;;;;;5.35;1.00;;;19.20;30.90;;;;;;5027935;28;20395;-69
2023/08/01 09:04:34;;;;;;;5.10;0.83;;;19.30;1.00;;;;;;5027644;28;20896;-69
2023/08/01 09:07:06;;;;;;;6.00;1.00;;;19.30;5.40;;;;;;5015837;28;20412;-69
2023/08/01 09:09:34;;;;;;;4.70;1.10;;;19.00;1.00;;;;;;5008495;28;20419;-69
2023/08/01 09:11:59;;;;;;;4.78;1.00;;;18.80;55.90;;;;;;5010403;28;20714;-70
2023/08/01 09:14:25;;;;;;;4.80;1.10;;;19.00;42.00;;;;;;5022422;28;20399;-69
2023/08/01 09:16:51;;;;;;;4.05;0.70;;;18.90;27.00;;;;;;5027930;28;20399;-70
2023/08/01 09:19:21;;;;;;;4.55;0.90;;;18.80;99.70;;;;;;5014324;28;20412;-70
2023/08/01 09:21:47;;;;;;;4.05;0.77;;;18.90;99.90;;;;;;5023350;28;20413;-70
2023/08/01 09:24:21;;;;;;;5.90;1.30;;;18.90;99.90;;;;;;5027243;28;20403;-70
2023/08/01 09:26:48;;;;;;;4.20;0.80;;;18.90;99.90;;;;;;5018021;28;20437;-70
2023/08/01 09:29:17;;;;;;;4.80;0.80;;;19.00;99.90;;;;;;5017487;28;20404;-70
2023/08/01 09:31:43;;;;;;;4.60;1.10;;;19.20;99.90;;;;;;5008173;28;20427;-70
2023/08/01 09:34:23;;;;;;;5.25;1.00;;;19.20;99.90;;;;;;5008343;28;20392;-70
2023/08/01 09:36:49;;;;;;;4.20;1.00;;;19.30;99.90;;;;;;5008354;28;20445;-70
2023/08/01 09:39:19;;;;;;;4.70;0.90;;;19.40;99.90;;;;;;5021107;28;20469;-70
2023/08/01 09:41:46;;;;;;;4.50;0.90;;;19.40;99.90;;;;;;5012631;28;20403;-70
2023/08/01 09:44:15;;;;;;;5.10;1.17;;;19.50;99.90;;;;;;5023004;28;20545;-70
2023/08/01 09:46:40;;;;;;;5.00;0.90;;;19.50;99.90;;;;;;5021841;28;20419;-70
2023/08/01 09:49:10;;;;;;;5.73;1.13;;;19.50;99.90;;;;;;5008691;28;20744;-70
2023/08/01 09:51:49;;;;;;;4.55;0.90;;;19.60;99.90;;;;;;5015649;28;20782;-70
2023/08/01 09:54:16;;;;;;;4.40;0.73;;;19.80;89.20;;;;;;5027772;28;20418;-70
2023/08/01 09:56:45;;;;;;;5.40;1.10;;;19.90;93.70;;;;;;5027184;28;20496;-70
2023/08/01 09:59:11;;;;;;;9.05;1.30;;;20.00;52.00;;;;;;5030687;28;20402;-70
2023/08/01 10:01:38;;;;;;;4.40;0.85;;;19.80;87.20;;;;;;5011623;28;20405;-69
2023/08/01 10:04:07;;;;;;;4.70;1.00;;;19.60;99.90;;;;;;5023929;28;20383;-69
2023/08/01 10:06:36;;;;;;;5.40;0.80;;;19.70;99.90;;;;;;5028921;28;20494;-70
2023/08/01 10:09:02;;;;;;;3.80;0.60;;;19.50;99.90;;;;;;5028240;28;20434;-70
2023/08/01 10:11:33;;;;;;;5.03;0.68;;;19.60;11.90;;;;;;5028147;28;20411;-69
2023/08/01 10:14:02;;;;;;;3.80;0.50;;;19.70;37.10;;;;;;5021046;28;20914;-70
2023/08/01 10:16:28;;;;;;;4.10;0.63;;;19.70;24.10;;;;;;5009332;28;20401;-70
2023/08/01 10:18:54;;;;;;;5.20;0.80;;;19.60;24.30;;;;;;5008880;28;20401;-70
2023/08/01 10:21:21;;;;;;;4.13;0.75;;;19.60;1.00;;;;;;5012786;28;20385;-70
2023/08/01 10:23:47;;;;;;;3.70;0.50;;;19.70;1.00;;;;;;5012809;28;20408;-70
2023/08/01 10:26:15;;;;;;;3.92;0.60;;;19.80;1.00;;;;;;5018642;28;20410;-70
2023/08/01 10:28:48;;;;;;;3.80;0.40;;;19.70;1.00;;;;;;5032576;28;20387;-69
2023/08/01 10:31:16;;;;;;;4.20;0.63;;;19.70;1.00;;;;;;5026919;28;20452;-70
2023/08/01 10:33:46;;;;;;;4.82;1.10;;;19.50;99.90;;;;;;5014923;28;20393;-69
2023/08/01 10:36:23;;;;;;;4.20;0.50;;;19.50;99.90;;;;;;5023896;28;20420;-70
2023/08/01 10:38:49;;;;;;;4.30;0.80;;;19.80;99.90;;;;;;5030858;28;20397;-69
2023/08/01 10:41:28;;;;;;;4.35;0.57;;;20.20;1.00;;;;;;5014029;28;20471;-70
2023/08/01 10:44:14;;;;;;;4.60;0.60;;;20.90;1.00;;;;;;5017152;28;20415;-70
2023/08/01 10:46:49;;;;;;;4.43;0.73;;;21.60;93.30;;;;;;5026769;28;20426;-68
2023/08/01 10:49:16;;;;;;;4.82;0.75;;;21.70;99.90;;;;;;5031569;28;20489;-69
2023/08/01 10:51:42;;;;;;;4.15;0.60;;;21.50;99.90;;;;;;5018975;28;20417;-69
2023/08/01 10:54:22;;;;;;;4.40;0.80;;;21.20;9.00;;;;;;5023182;28;20407;-68
2023/08/01 10:56:49;;;;;;;6.30;0.60;;;21.50;1.00;;;;;;5035591;28;20406;-68
2023/08/01 10:59:15;;;;;;;4.30;0.73;;;21.50;99.90;;;;;;5034456;28;20426;-68
2023/08/01 11:01:52;;;;;;;4.40;0.80;;;21.50;99.90;;;;;;5030504;28;20432;-68
2023/08/01 11:04:19;;;;;;;4.50;0.90;;;21.70;99.90;;;;;;5027136;28;20402;-68
2023/08/01 11:06:52;;;;;;;5.00;0.90;;;21.80;99.90;;;;;;5030200;28;20407;-69
2023/08/01 11:09:23;;;;;;;4.40;0.70;;;22.00;1.00;;;;;;5048615;28;20415;-69
2023/08/01 11:11:52;;;;;;;4.47;0.70;;;22.10;84.90;;;;;;5041178;28;20414;-70
2023/08/01 11:14:20;;;;;;;5.05;1.00;;;22.00;1.00;;;;;;5017867;28;20459;-70
2023/08/01 11:16:47;;;;;;;4.80;0.80;;;22.00;99.90;;;;;;5035957;28;21281;-70
2023/08/01 11:19:27;;;;;;;4.30;0.60;;;22.30;99.90;;;;;;5042928;28;20419;-70
2023/08/01 11:21:56;;;;;;;5.30;0.83;;;22.50;1.00;;;;;;5030581;28;20452;-69
2023/08/01 11:24:22;;;;;;;5.90;0.70;;;22.70;1.00;;;;;;5030456;28;20482;-69
2023/08/01 11:26:49;;;;;;;4.72;0.95;;;22.80;99.90;;;;;;5027478;28;20399;-69
2023/08/01 11:29:16;;;;;;;4.80;0.90;;;22.90;99.90;;;;;;5029469;28;20395;-69
2023/08/01 11:31:58;;;;;;;4.55;0.75;;;23.10;1.00;;;;;;5030408;28;20812;-69
2023/08/01 11:34:24;;;;;;;4.60;0.67;;;22.70;99.90;;;;;;5030090;28;20746;-69
2023/08/01 11:36:51;;;;;;;4.50;0.80;;;22.50;99.90;;;;;;5029099;28;20476;-69
2023/08/01 11:39:17;;;;;;;4.50;0.70;;;22.60;99.90;;;;;;5030402;28;20764;-68
2023/08/01 11:41:43;;;;;;;5.67;0.70;;;22.50;1.00;;;;;;5029905;28;20402;-69
2023/08/01 11:44:11;;;;;;;5.60;0.70;;;22.40;1.00;;;;;;5030224;28;20391;-69
2023/08/01 11:46:37;;;;;;;6.70;1.30;;;22.40;1.00;;;;;;5029531;28;20465;-69
2023/08/01 11:49:07;;;;;;;5.43;0.90;;;22.60;1.00;;;;;;5030476;28;20940;-69
2023/08/01 11:51:40;;;;;;;5.10;1.08;;;22.60;1.00;;;;;;5028787;28;20760;-69
2023/08/01 11:54:07;;;;;;;4.60;0.73;;;22.70;1.00;;;;;;5026496;28;20506;-69
2023/08/01 11:56:33;;;;;;;4.60;0.70;;;22.90;1.00;;;;;;5029573;28;20477;-69
2023/08/01 11:58:59;;;;;;;4.50;0.60;;;23.10;1.00;;;;;;5011526;28;20392;-69
2023/08/01 12:01:25;;;;;;;5.13;0.82;;;23.00;1.00;;;;;;5014281;28;20402;-68
2023/08/01 12:03:53;;;;;;;4.80;0.80;;;22.80;1.00;;;;;;5029915;28;20395;-69
2023/08/01 12:06:23;;;;;;;5.00;0.80;;;22.80;1.00;;;;;;5029165;28;20438;-69
2023/08/01 12:08:51;;;;;;;5.30;0.70;;;22.70;1.00;;;;;;5029437;28;20399;-69
2023/08/01 12:11:26;;;;;;;6.20;0.80;;;22.90;1.00;;;;;;5011584;28;20790;-69
2023/08/01 12:14:03;;;;;;;4.90;0.80;;;23.10;1.00;;;;;;5026397;28;20422;-69
2023/08/01 12:16:29;;;;;;;5.60;0.93;;;22.90;1.00;;;;;;5020967;28;20459;-70
2023/08/01 12:18:55;;;;;;;4.60;0.80;;;22.80;1.00;;;;;;5009121;28;20760;-70
2023/08/01 12:21:21;;;;;;;5.10;0.90;;;22.80;1.00;;;;;;5011884;28;20442;-70
2023/08/01 12:23:46;;;;;;;5.00;0.80;;;23.00;1.00;;;;;;5029525;28;20431;-70
2023/08/01 12:26:12;;;;;;;5.40;1.00;;;22.90;1.00;;;;;;5029132;28;20391;-69
2023/08/01 12:28:37;;;;;;;5.50;1.20;;;23.00;1.00;;;;;;5029120;28;20891;-70
2023/08/01 12:31:03;;;;;;;6.00;1.00;;;23.20;1.00;;;;;;5028176;28;20454;-70
2023/08/01 12:33:29;;;;;;;5.28;1.20;;;23.00;1.00;;;;;;5029989;28;20392;-70
2023/08/01 12:35:55;;;;;;;6.40;1.10;;;22.90;1.00;;;;;;5029122;28;21129;-69
2023/08/01 12:38:21;;;;;;;4.80;0.88;;;23.00;1.00;;;;;;5010541;28;20396;-69
2023/08/01 12:40:46;;;;;;;4.40;0.70;;;23.60;1.00;;;;;;5010398;28;20447;-70
2023/08/01 12:43:13;;;;;;;4.90;0.80;;;23.10;1.00;;;;;;5010254;28;20404;-69
2023/08/01 12:45:39;;;;;;;4.63;0.80;;;23.20;1.00;;;;;;5009724;28;20400;-69
2023/08/01 12:48:05;;;;;;;5.20;0.90;;;23.00;1.00;;;;;;5029619;28;20387;-69